< < Back
Terminal Aerodrome Forecast


Current Version              Previous Versions:   1  2  3  4  5  6  7  8  9  

Terminal Aerodrome Forecast

957
FTUS42 KTAE 311100
TAFVLD
TAF
KVLD 311120Z 3112/0112 03004KT P6SM BKN250
     FM311500 08007KT P6SM SCT250=



Latest METAR

572
SAUS70 KWBC 011600 RRX
MTRVLD
METAR KVLD 011553Z 15014KT 10SM CLR 18/09 A3020 RMK AO2 SLP235
T01780089


USA.gov is the U.S. government's official web portal to all federal, state and local government web resources and services.